• Join FlightAware (Why Join?)
  • Login
  • US Flag 
12:42PM EDT


 

Airport Tracker/Info


-or-


 

Live Flight TrackerFlight Track Log ✈ EJA982 ✈ 26-Apr-2013 ✈ KOMA - KPSP

Flight Track Log - Related Links

Times and Time Zones

All times are in EDT time to prevent confusion due to time zone crossing. See the EJA982 flight status page for this flight to view local times or setup timezone preferences in your user account.

Time Position Orientation Groundspeed Altitude Reporting Facility
EDT Latitude Longitude Course Direction KTS MPH feet Rate Location/Type
07:20PM 41.2278 -95.8886 177° South 216 249 4,200  Level Minneapolis Center
07:21PM 41.2183 -95.8997 222° Southwest 226 260 4,600 3,000 Climbing Minneapolis Center
07:21PM 41.1953 -95.9644 245° Southwest 283 326 7,000 4,440 Climbing Minneapolis Center
07:22PM 41.1769 -96.0103 242° Southwest 263 303 9,200 3,540 Climbing Minneapolis Center
07:23PM 41.1381 -96.1122 243° Southwest 298 343 12,600 2,460 Climbing Minneapolis Center
07:24PM 41.0939 -96.2439 246° West 366 421 14,400 1,620 Climbing Minneapolis Center
07:25PM 41.0456 -96.3847 246° West 395 455 16,000 1,620 Climbing Minneapolis Center
07:26PM 40.9969 -96.5300 246° West 413 475 17,800 1,740 Climbing Minneapolis Center
07:27PM 40.9481 -96.6722 246° West 422 486 19,700 1,860 Climbing Minneapolis Center
07:28PM 40.9000 -96.8192 247° West 428 493 21,700 2,040 Climbing Minneapolis Center
07:29PM 40.8500 -96.9981 250° West 431 496 24,000 1,860 Climbing Minneapolis Center
07:30PM 40.8064 -97.1514 249° West 437 503 25,600 1,500 Climbing Minneapolis Center
07:31PM 40.7622 -97.3108 250° West 447 514 27,100 1,440 Climbing Minneapolis Center
07:32PM 40.7147 -97.4714 249° West 463 533 28,600 1,440 Climbing Minneapolis Center
07:33PM 40.6681 -97.6331 249° West 469 540 30,100 1,440 Climbing Minneapolis Center
07:34PM 40.6203 -97.7953 249° West 472 543 31,600 1,440 Climbing Minneapolis Center
07:35PM 40.5733 -97.9589 249° West 475 547 33,100 1,620 Climbing Minneapolis Center
07:36PM 40.5433 -98.1650 259° West 475 547 35,000 1,800 Climbing Minneapolis Center
07:37PM 40.5208 -98.3333 260° West 470 541 36,900 1,620 Climbing Minneapolis Center
07:38PM 40.5019 -98.4997 262° West 462 532 38,400 1,200 Climbing Minneapolis Center
07:39PM 40.4578 -98.6572 250° West 458 527 39,400 720 Climbing Minneapolis Center
07:41PM 40.4050 -98.8117 246° West 460 529 40,000 240 Climbing Minneapolis Center
07:42PM 40.3533 -98.9686 247° West 464 534 40,000  Level Denver Center
07:43PM 40.2886 -99.1589 246° West 473 544 40,000  Level Denver Center
07:44PM 40.2342 -99.3150 245° Southwest 471 542 40,000  Level Denver Center
07:45PM 40.1808 -99.4731 246° West 473 544 40,000  Level Denver Center
07:46PM 40.1264 -99.6317 246° West 478 550 40,000  Level Denver Center
07:47PM 40.0714 -99.7883 245° Southwest 475 547 40,000  Level Denver Center
07:48PM 40.0161 -99.9472 246° West 478 550 40,000  Level Denver Center
07:49PM 39.9608 -100.1067 246° West 482 555 40,000  Level Denver Center
07:50PM 39.8850 -100.3203 245° Southwest 481 554 40,000  Level Denver Center
07:51PM 39.8303 -100.4725 245° Southwest 483 556 40,000  Level Denver Center
07:52PM 39.7667 -100.6525 245° Southwest 487 560 40,000  Level Denver Center
07:53PM 39.7111 -100.8058 245° Southwest 488 562 40,000  Level Denver Center
07:54PM 39.6472 -100.9839 245° Southwest 488 562 40,000  Level Denver Center
07:55PM 39.5919 -101.1350 245° Southwest 484 557 40,000  Level Denver Center
07:56PM 39.5272 -101.3128 245° Southwest 487 560 40,000  Level Denver Center
07:57PM 39.4719 -101.4647 245° Southwest 487 560 40,000  Level Denver Center
07:58PM 39.4161 -101.6147 244° Southwest 485 558 40,000  Level Denver Center
07:59PM 39.3503 -101.7906 244° Southwest 486 559 40,000  Level Denver Center
08:00PM 39.2925 -101.9364 243° Southwest 483 556 40,000  Level Denver Center
08:01PM 39.2267 -102.1100 244° Southwest 483 556 40,000  Level Denver Center
08:02PM 39.1689 -102.2578 243° Southwest 485 558 40,000  Level Denver Center
08:03PM 39.1022 -102.4294 243° Southwest 482 555 40,000  Level Denver Center
08:05PM 39.0439 -102.5778 243° Southwest 484 557 40,000  Level Denver Center
08:06PM 38.9767 -102.7497 243° Southwest 484 557 40,000  Level Denver Center
08:07PM 38.9094 -102.9178 243° Southwest 487 560 40,000  Level Denver Center
08:08PM 38.8481 -103.0742 243° Southwest 486 559 40,000  Level Denver Center
08:09PM 38.7853 -103.2292 243° Southwest 486 559 40,000  Level Denver Center
08:10PM 38.7219 -103.3856 243° Southwest 489 563 40,000  Level Denver Center
08:11PM 38.6558 -103.5483 243° Southwest 485 558 40,000  Level Denver Center
08:12PM 38.5967 -103.6961 243° Southwest 489 563 40,000  Level Denver Center
08:13PM 38.5267 -103.8669 242° Southwest 489 563 40,000  Level Denver Center
08:14PM 38.4658 -104.0144 242° Southwest 491 565 40,000  Level Denver Center
08:15PM 38.4042 -104.1647 242° Southwest 493 567 40,000  Level Denver Center
08:16PM 38.3283 -104.3483 242° Southwest 495 570 40,000  Level Denver Center
08:17PM 38.2533 -104.5311 242° Southwest 493 567 40,000  Level Denver Center
08:18PM 38.1950 -104.6786 243° Southwest 491 565 40,000  Level Denver Center
08:19PM 38.1256 -104.8500 243° Southwest 491 565 40,000  Level Denver Center
08:20PM 38.0669 -104.9981 243° Southwest 492 566 40,000  Level Denver Center
08:21PM 37.9956 -105.1706 242° Southwest 496 571 40,000  Level Denver Center
08:22PM 37.9361 -105.3167 243° Southwest 491 565 40,000  Level Denver Center
08:23PM 37.8647 -105.4919 243° Southwest 493 567 40,000  Level Denver Center
08:24PM 37.8044 -105.6358 242° Southwest 495 570 40,000  Level Denver Center
08:25PM 37.7347 -105.8075 243° Southwest 494 568 40,000  Level Denver Center
08:26PM 37.6725 -105.9539 242° Southwest 494 568 40,000  Level Denver Center
08:27PM 37.6003 -106.1264 242° Southwest 499 574 40,000  Level Denver Center
08:29PM 37.5425 -106.2661 242° Southwest 495 570 40,000  Level Denver Center
08:30PM 37.4600 -106.4625 242° Southwest 498 573 40,000  Level Denver Center
08:31PM 37.3969 -106.6089 242° Southwest 497 572 40,000  Level Denver Center
08:32PM 37.3231 -106.7806 242° Southwest 501 577 40,000  Level Denver Center
08:33PM 37.2708 -106.9033 242° Southwest 501 577 40,000  Level Denver Center
08:34PM 37.1861 -107.0981 241° Southwest 499 574 40,000  Level Denver Center
08:35PM 37.1233 -107.2450 242° Southwest 499 574 40,000  Level Denver Center
08:36PM 37.0494 -107.4147 241° Southwest 497 572 40,000  Level Denver Center
08:37PM 36.9978 -107.5347 242° Southwest 495 570 40,000  Level Denver Center
08:38PM 36.9133 -107.7256 241° Southwest 492 566 40,000  Level Denver Center
08:39PM 36.8506 -107.8692 241° Southwest 493 567 40,000  Level Denver Center
08:40PM 36.7775 -108.0317 241° Southwest 483 556 40,000  Level Denver Center
08:41PM 36.7172 -108.1728 242° Southwest 481 554 40,000  Level Denver Center
08:42PM 36.6575 -108.3136 242° Southwest 482 555 40,000  Level Denver Center
08:43PM 36.5861 -108.4781 242° Southwest 483 556 40,000  Level Denver Center
08:44PM 36.5267 -108.6194 242° Southwest 485 558 40,000  Level Denver Center
08:45PM 36.4556 -108.7825 242° Southwest 483 556 40,000  Level Denver Center
08:46PM 36.3956 -108.9219 242° Southwest 483 556 40,000  Level Denver Center
08:47PM 36.3247 -109.0825 241° Southwest 481 554 40,000  Level Denver Center
08:48PM 36.2642 -109.2206 241° Southwest 481 554 40,000  Level Denver Center
08:49PM 36.1922 -109.3819 241° Southwest 483 556 40,000  Level Denver Center
08:50PM 36.1308 -109.5219 242° Southwest 484 557 40,000  Level Denver Center
08:52PM 36.0589 -109.6850 241° Southwest 485 558 40,000  Level Denver Center
08:53PM 35.9856 -109.8447 240° Southwest 481 554 40,000  Level Denver Center
08:54PM 35.9153 -110.0058 242° Southwest 479 551 40,000  Level Denver Center
08:55PM 35.8517 -110.1444 241° Southwest 476 548 40,000  Level Denver Center
08:55PM 35.8192 -110.2092 238° Southwest 477 549 40,000  Level Albuquerque Center
08:56PM 35.7581 -110.3450 241° Southwest 476 548 40,000  Level Albuquerque Center
08:57PM 35.6950 -110.4797 240° Southwest 474 545 40,000  Level Albuquerque Center
08:58PM 35.6222 -110.6389 241° Southwest 478 550 40,000  Level Albuquerque Center
08:59PM 35.5614 -110.7756 241° Southwest 478 550 40,000  Level Albuquerque Center
09:00PM 35.4858 -110.9353 240° Southwest 482 555 40,000  Level Albuquerque Center
09:01PM 35.4225 -111.0728 241° Southwest 485 558 40,000  Level Albuquerque Center
09:02PM 35.3592 -111.2100 241° Southwest 485 558 40,000  Level Albuquerque Center
09:03PM 35.2853 -111.3772 242° Southwest 490 564 40,000  Level Albuquerque Center
09:04PM 35.2181 -111.5206 240° Southwest 489 563 40,000  Level Albuquerque Center
09:05PM 35.1597 -111.6653 244° Southwest 481 554 40,000  Level Albuquerque Center
09:06PM 35.1208 -111.8078 252° West 479 551 40,000  Level Albuquerque Center
09:07PM 35.0789 -111.9619 252° West 481 554 40,000  Level Albuquerque Center
09:08PM 35.0281 -112.1444 251° West 476 548 40,000  Level Albuquerque Center
09:09PM 34.9861 -112.2978 252° West 476 548 40,000  Level Albuquerque Center
09:10PM 34.9425 -112.4517 251° West 478 550 40,000  Level Albuquerque Center
09:11PM 34.9003 -112.6081 252° West 483 556 40,000  Level Albuquerque Center
09:12PM 34.8558 -112.7631 251° West 484 557 40,000  Level Albuquerque Center
09:13PM 34.8125 -112.9181 251° West 484 557 40,000  Level Albuquerque Center
09:14PM 34.7678 -113.0728 251° West 484 557 40,000 -540 Level Albuquerque Center
09:15PM 34.7231 -113.2275 251° West 484 557 39,000 -1,740 Descending Albuquerque Center
09:16PM 34.6789 -113.3789 251° West 480 552 36,500 -2,640 Descending Albuquerque Center
09:18PM 34.5917 -113.6775 251° West 473 544 31,500 -2,280 Descending Los Angeles Center
09:19PM 34.5453 -113.8286 250° West 479 551 30,000 -780 Descending Los Angeles Center
09:20PM 34.4972 -113.9747 248° West 486 559 30,000 -480 Level Los Angeles Center
09:21PM 34.4397 -114.1572 249° West 487 560 29,100 -1,200 Descending Los Angeles Center
09:22PM 34.3911 -114.3075 249° West 482 555 27,600 -1,500 Descending Los Angeles Center
09:24PM 34.3431 -114.4578 249° West 480 552 26,000 -1,500 Descending Los Angeles Center
09:25PM 34.2956 -114.6022 248° West 466 536 24,500 -1,500 Descending Los Angeles Center
09:26PM 34.2497 -114.7439 249° West 456 525 23,000 -1,500 Descending Los Angeles Center
09:27PM 34.2019 -114.8864 248° West 459 528 21,500 -1,380 Descending Los Angeles Center
09:28PM 34.1467 -115.0561 249° West 455 524 20,200 -1,140 Descending Los Angeles Center
09:29PM 34.1006 -115.1947 248° West 448 516 19,200 -1,020 Descending Los Angeles Center
09:30PM 34.0528 -115.3339 248° West 450 518 18,200 -1,200 Descending Los Angeles Center
09:31PM 34.0067 -115.4700 248° West 443 510 16,800 -1,500 Descending Los Angeles Center
09:32PM 33.9625 -115.6025 248° West 432 497 15,100 -1,680 Descending Los Angeles Center
09:33PM 33.9208 -115.7294 248° West 418 481 13,400 -1,680 Descending Los Angeles Center
09:34PM 33.9067 -115.8917 264° West 413 475 11,700 -1,320 Descending Los Angeles Center
09:35PM 33.8983 -116.0044 265° West 351 404 10,700 -1,380 Descending Los Angeles Center
09:36PM 33.8928 -116.1036 266° West 310 357 8,900 -1,620 Descending Los Angeles Center
09:37PM 33.8864 -116.1994 265° West 299 344 7,400 -1,020 Descending Los Angeles Center
09:38PM 33.8817 -116.2878 266° West 288 331 6,900 -960 Descending Los Angeles Center
09:39PM 33.8764 -116.3500 264° West 239 275 5,500 -1,800 Descending Los Angeles Center
09:41PM 33.8833 -116.4833 274° West 194 223 2,200 -1,500 Descending Southern California TRACON
09:42PM 33.8667 -116.5333 248° West 143 165 1,400 -780 Descending Southern California TRACON
09:44PM 33.8297 -116.5067 151° Southeast  Level Estimated
09:51PM 33.8297 -116.5067 151° Southeast  Level Estimated